Terminal Aerodrome Forecast
Issued by NWS

Home | Current Version | Previous Version | Text Only | Print | Product List | Glossary On
Versions: 1 2 3 4 5 6 7 8 9 10 11 12 13 14 15 16 17 18 19 20 21 22 23 24 25 26 27 28 29 30 31 32
000
FTUS43 KMKX 232341
TAFUES
TAF
KUES 232341Z 2400/2424 08009KT P6SM VCSH SCT070 BKN200
     FM240300 07007KT P6SM -RA OVC100
     FM240600 10005KT 4SM -RA SCT035 OVC050
     FM241100 11008KT 6SM -RA OVC035
     FM241500 13015G23KT 5SM BR SCT020 OVC060
     FM241800 13014G25KT 4SM -RA SCT025 OVC050CB PROB30 2418/2424
      3SM -TSRA BKN035 OVC050CB=

USA.gov is the U.S. government's official web portal to all federal, state and local government web resources and services.